Woodbine, Tennessee
Current Conditions -  °F | °C
As of 2:53 PM on Friday 31 Oct 2014 (Local Time) from KBNA Reporting Station
Overcast Overcast  
Wind Chill: 35°   Ceiling: 1400
Heat Index: 43°   Visibility: 7mi
Dew Point: 40°   Wind: 17mph
Humidity: 89%   Direction: 330°NNW
Pressure: 30.04"   Gusts: 29mph
Location:  36.0657°N, 86.7236°W
Report Text: KBNA 311953Z 33015G25KT 7SM BKN014 OVC024 06/04 A3004 RMK AO2 PK WND 34029/1942 RAB17E46 SLP174 P0000 T00610044
Loading
Personal Weather Stations






























Interactive Weather Map New forecast layout! Learn more

10-Day Weather Forecast

Advertisements
Track Severe Weather on mobile